createdAt,value
2018-11-28T00:00:18.459Z,17.29
2018-11-28T00:01:18.450Z,19.20
2018-11-28T00:02:18.439Z,19.00
2018-11-28T00:03:18.427Z,19.29
2018-11-28T00:04:18.419Z,19.89
2018-11-28T00:05:18.413Z,19.39
2018-11-28T00:06:18.398Z,19.10
2018-11-28T00:07:18.387Z,19.10
2018-11-28T00:08:18.374Z,19.50
2018-11-28T00:09:18.364Z,20.10
2018-11-28T00:10:18.355Z,16.70
2018-11-28T00:11:18.344Z,19.89
2018-11-28T00:12:18.334Z,19.39
2018-11-28T00:13:18.323Z,19.79
2018-11-28T00:14:18.312Z,19.50
2018-11-28T00:15:18.301Z,19.70
2018-11-28T00:16:18.289Z,19.79
2018-11-28T00:17:18.280Z,19.50
2018-11-28T00:18:18.267Z,19.60
2018-11-28T00:19:18.255Z,20.50
2018-11-28T00:20:18.248Z,19.39
2018-11-28T00:21:18.236Z,19.39
2018-11-28T00:22:18.227Z,18.89
2018-11-28T00:23:18.214Z,19.50
2018-11-28T00:24:18.203Z,18.79
2018-11-28T00:25:18.193Z,19.60
2018-11-28T00:26:18.180Z,19.20
2018-11-28T00:27:18.172Z,19.79
2018-11-28T00:28:18.162Z,19.29
2018-11-28T00:29:18.150Z,20.00
2018-11-28T00:30:18.138Z,20.29
2018-11-28T00:31:18.129Z,20.60
2018-11-28T00:32:18.117Z,19.50
2018-11-28T00:33:18.106Z,20.00
2018-11-28T00:34:18.096Z,20.89
2018-11-28T00:35:18.085Z,19.89
2018-11-28T00:36:18.075Z,20.39
2018-11-28T00:37:18.066Z,20.10
2018-11-28T00:38:18.052Z,20.00
2018-11-28T00:39:18.043Z,20.00
2018-11-28T00:40:18.109Z,20.20
2018-11-28T00:41:18.021Z,20.10
2018-11-28T00:42:18.010Z,20.10
2018-11-28T00:43:18.000Z,20.10
2018-11-28T00:44:17.990Z,19.70
2018-11-28T00:45:17.980Z,20.29
2018-11-28T00:46:17.970Z,19.60
2018-11-28T00:47:17.956Z,20.29
2018-11-28T00:48:17.948Z,20.00
2018-11-28T00:49:17.935Z,19.70
2018-11-28T00:50:17.925Z,19.20
2018-11-28T00:51:17.924Z,20.20
2018-11-28T00:52:17.904Z,19.79
2018-11-28T00:53:17.892Z,19.39
2018-11-28T00:54:17.881Z,20.00
2018-11-28T00:55:17.875Z,19.89
2018-11-28T00:56:17.861Z,19.20
2018-11-28T00:57:17.851Z,19.29
2018-11-28T00:58:17.842Z,20.10
2018-11-28T00:59:17.831Z,20.29
2018-11-28T01:00:17.820Z,19.70
2018-11-28T01:01:17.818Z,21.10
2018-11-28T01:02:17.800Z,20.70
2018-11-28T01:03:17.786Z,20.10
2018-11-28T01:04:17.776Z,19.29
2018-11-28T01:05:17.765Z,18.79
2018-11-28T01:06:17.755Z,19.60
2018-11-28T01:07:17.743Z,19.10
2018-11-28T01:08:17.734Z,20.00
2018-11-28T01:09:17.721Z,18.29
2018-11-28T01:10:17.710Z,18.70
2018-11-28T01:11:17.703Z,19.50
2018-11-28T01:12:17.689Z,18.60
2018-11-28T01:13:17.679Z,20.50
2018-11-28T01:14:17.673Z,20.39
2018-11-28T01:15:17.659Z,19.50
2018-11-28T01:16:17.650Z,19.00
2018-11-28T01:17:17.636Z,20.39
2018-11-28T01:18:17.628Z,20.79
2018-11-28T01:19:17.616Z,19.79
2018-11-28T01:20:17.606Z,19.39
2018-11-28T01:21:17.593Z,20.00
2018-11-28T01:22:17.585Z,19.70
2018-11-28T01:23:17.574Z,20.50
2018-11-28T01:24:17.563Z,20.70
2018-11-28T01:25:17.552Z,20.10
2018-11-28T01:26:17.550Z,19.89
2018-11-28T01:27:17.533Z,19.39
2018-11-28T01:28:17.519Z,20.00
2018-11-28T01:29:17.509Z,20.20
2018-11-28T01:30:17.499Z,20.50
2018-11-28T01:31:17.491Z,20.50
2018-11-28T01:32:17.477Z,20.50
2018-11-28T01:33:17.467Z,20.50
2018-11-28T01:34:17.458Z,19.89
2018-11-28T01:35:17.448Z,20.60
2018-11-28T01:36:17.437Z,20.29
2018-11-28T01:37:17.424Z,19.79
2018-11-28T01:38:17.414Z,20.79
2018-11-28T01:39:17.403Z,20.89
2018-11-28T01:40:17.394Z,21.10
2018-11-28T01:41:17.385Z,21.29
2018-11-28T01:42:17.371Z,19.39
2018-11-28T01:43:17.364Z,20.60
2018-11-28T01:44:17.352Z,21.00
2018-11-28T01:45:17.342Z,21.10
2018-11-28T01:46:17.332Z,20.10
2018-11-28T01:47:17.319Z,19.89
2018-11-28T01:48:17.309Z,20.00
2018-11-28T01:49:17.299Z,20.10
2018-11-28T01:50:17.290Z,19.79
2018-11-28T01:51:17.281Z,20.20
2018-11-28T01:52:17.264Z,20.60
2018-11-28T01:53:17.255Z,21.20
2018-11-28T01:54:17.245Z,20.00
2018-11-28T01:55:17.232Z,20.79
2018-11-28T01:56:17.224Z,20.10
2018-11-28T01:57:17.212Z,21.10
2018-11-28T01:58:17.200Z,21.20
2018-11-28T01:59:17.191Z,21.00
2018-11-28T02:00:17.195Z,21.89
2018-11-28T02:01:17.170Z,21.39
2018-11-28T02:02:17.159Z,22.29
2018-11-28T02:03:17.150Z,21.79
2018-11-28T02:04:17.137Z,20.89
2018-11-28T02:05:17.127Z,20.60
2018-11-28T02:06:17.117Z,21.20
2018-11-28T02:07:17.106Z,21.50
2018-11-28T02:08:17.094Z,21.00
2018-11-28T02:09:17.087Z,21.29
2018-11-28T02:10:17.074Z,22.10
2018-11-28T02:11:17.066Z,21.29
2018-11-28T02:12:17.053Z,21.50
2018-11-28T02:13:17.048Z,21.00
2018-11-28T02:14:17.032Z,21.60
2018-11-28T02:15:17.024Z,20.60
2018-11-28T02:16:17.010Z,20.89
2018-11-28T02:17:17.002Z,20.70
2018-11-28T02:18:16.996Z,20.79
2018-11-28T02:19:16.979Z,21.50
2018-11-28T02:20:16.967Z,21.20
2018-11-28T02:21:16.958Z,22.10
2018-11-28T02:22:16.948Z,20.89
2018-11-28T02:23:16.938Z,21.60
2018-11-28T02:24:16.927Z,22.10
2018-11-28T02:25:16.914Z,21.79
2018-11-28T02:26:16.904Z,22.20
2018-11-28T02:27:16.896Z,22.29
2018-11-28T02:28:16.882Z,21.89
2018-11-28T02:29:16.872Z,21.79
2018-11-28T02:30:16.865Z,22.70
2018-11-28T02:31:16.851Z,21.89
2018-11-28T02:32:16.841Z,21.70
2018-11-28T02:33:16.833Z,22.20
2018-11-28T02:34:16.830Z,21.10
2018-11-28T02:35:16.837Z,21.60
2018-11-28T02:36:16.798Z,21.20
2018-11-28T02:37:16.787Z,21.29
2018-11-28T02:38:16.779Z,20.89
2018-11-28T02:39:16.774Z,21.39
2018-11-28T02:40:16.756Z,20.89
2018-11-28T02:41:16.747Z,20.89
2018-11-28T02:42:16.733Z,21.39
2018-11-28T02:43:16.726Z,21.70
2018-11-28T02:44:16.715Z,21.39
2018-11-28T02:45:16.703Z,21.89
2018-11-28T02:46:16.692Z,20.89
2018-11-28T02:47:16.682Z,21.89
2018-11-28T02:48:16.672Z,22.70
2018-11-28T02:49:16.660Z,21.50
2018-11-28T02:50:16.654Z,21.70
2018-11-28T02:51:16.638Z,21.60
2018-11-28T02:52:16.628Z,20.79
2018-11-28T02:53:16.616Z,21.20
2018-11-28T02:54:16.607Z,21.89
2018-11-28T02:55:16.610Z,20.10
2018-11-28T02:56:16.585Z,21.20
2018-11-28T02:57:16.576Z,20.89
2018-11-28T02:58:16.566Z,21.79
2018-11-28T02:59:16.555Z,21.29
2018-11-28T03:00:16.543Z,21.00
2018-11-28T03:01:16.532Z,21.10
2018-11-28T03:02:16.526Z,20.89
2018-11-28T03:03:16.514Z,21.79
2018-11-28T03:04:16.504Z,21.79
2018-11-28T03:05:16.497Z,21.10
2018-11-28T03:06:16.494Z,21.39
2018-11-28T03:07:16.474Z,21.10
2018-11-28T03:08:16.460Z,20.29
2018-11-28T03:09:16.448Z,21.00
2018-11-28T03:10:16.435Z,22.29
2018-11-28T03:11:16.427Z,21.10
2018-11-28T03:12:16.417Z,21.89
2018-11-28T03:13:16.406Z,22.70
2018-11-28T03:14:16.393Z,21.89
2018-11-28T03:15:16.386Z,21.50
2018-11-28T03:16:16.373Z,21.79
2018-11-28T03:17:16.364Z,21.50
2018-11-28T03:18:16.353Z,22.50
2018-11-28T03:19:16.341Z,21.39
2018-11-28T03:20:16.333Z,22.10
2018-11-28T03:21:16.320Z,22.10
2018-11-28T03:22:16.309Z,22.00
2018-11-28T03:23:16.300Z,22.00
2018-11-28T03:24:16.288Z,22.39
2018-11-28T03:25:16.277Z,22.29
2018-11-28T03:26:16.270Z,22.00
2018-11-28T03:27:16.255Z,21.79
2018-11-28T03:28:16.245Z,22.39
2018-11-28T03:29:16.240Z,21.79
2018-11-28T03:30:16.226Z,22.00
2018-11-28T03:31:16.227Z,20.89
2018-11-28T03:32:16.205Z,21.50
2018-11-28T03:33:16.200Z,21.70
2018-11-28T03:34:16.180Z,21.70
2018-11-28T03:35:16.171Z,22.79
2018-11-28T03:36:16.161Z,22.29
2018-11-28T03:37:16.149Z,23.10
2018-11-28T03:38:16.140Z,22.10
2018-11-28T03:39:16.138Z,22.20
2018-11-28T03:40:16.121Z,22.79
2018-11-28T03:41:16.108Z,22.60
2018-11-28T03:42:16.099Z,23.00
2018-11-28T03:43:16.088Z,22.70
2018-11-28T03:44:16.076Z,22.00
2018-11-28T03:45:16.079Z,21.89
2018-11-28T03:46:16.054Z,22.50
2018-11-28T03:47:16.045Z,21.79
2018-11-28T03:48:16.032Z,20.29
2018-11-28T03:49:16.022Z,21.70
2018-11-28T03:50:16.015Z,22.10
2018-11-28T03:51:16.001Z,23.20
2018-11-28T03:52:15.992Z,21.70
2018-11-28T03:53:15.979Z,22.00
2018-11-28T03:54:15.971Z,22.29
2018-11-28T03:55:15.958Z,22.10
2018-11-28T03:56:15.950Z,22.10
2018-11-28T03:57:15.937Z,22.00
2018-11-28T03:58:15.927Z,22.10
2018-11-28T03:59:15.916Z,21.20
2018-11-28T04:00:15.911Z,21.89
2018-11-28T04:01:15.896Z,22.89
2018-11-28T04:02:15.884Z,22.10
2018-11-28T04:03:15.880Z,22.20
2018-11-28T04:04:15.866Z,22.79
2018-11-28T04:05:15.864Z,22.10
2018-11-28T04:06:15.843Z,22.50
2018-11-28T04:07:15.837Z,23.29
2018-11-28T04:08:15.821Z,21.50
2018-11-28T04:09:15.811Z,22.20
2018-11-28T04:10:15.820Z,21.60
2018-11-28T04:11:15.794Z,21.29
2018-11-28T04:12:15.779Z,21.20
2018-11-28T04:13:15.779Z,21.00
2018-11-28T04:14:15.759Z,21.79
2018-11-28T04:15:15.767Z,21.50
2018-11-28T04:16:15.735Z,22.10
2018-11-28T04:17:15.728Z,21.60
2018-11-28T04:18:15.725Z,21.00
2018-11-28T04:19:15.704Z,23.39
2018-11-28T04:20:15.694Z,22.29
2018-11-28T04:21:15.684Z,21.39
2018-11-28T04:22:15.674Z,21.50
2018-11-28T04:23:15.663Z,23.00
2018-11-28T04:24:15.649Z,22.00
2018-11-28T04:25:15.640Z,22.79
2018-11-28T04:26:15.629Z,22.29
2018-11-28T04:27:15.619Z,21.60
2018-11-28T04:28:15.609Z,22.10
2018-11-28T04:29:15.597Z,21.20
2018-11-28T04:30:15.599Z,21.60
2018-11-28T04:31:15.582Z,21.39
2018-11-28T04:32:15.566Z,22.29
2018-11-28T04:33:15.555Z,21.60
2018-11-28T04:34:15.544Z,22.79
2018-11-28T04:35:15.534Z,21.50
2018-11-28T04:36:15.523Z,22.10
2018-11-28T04:37:15.516Z,22.20
2018-11-28T04:38:15.501Z,21.00
2018-11-28T04:39:15.493Z,22.89
2018-11-28T04:40:15.496Z,21.39
2018-11-28T04:41:15.469Z,21.60
2018-11-28T04:42:15.460Z,22.10
2018-11-28T04:43:15.447Z,21.89
2018-11-28T04:44:15.438Z,22.20
2018-11-28T04:45:15.429Z,22.10
2018-11-28T04:46:15.417Z,21.70
2018-11-28T04:47:15.405Z,22.00
2018-11-28T04:48:15.396Z,21.39
2018-11-28T04:49:15.384Z,22.29
2018-11-28T04:50:15.373Z,21.29
2018-11-28T04:51:15.364Z,21.89
2018-11-28T04:52:15.353Z,20.79
2018-11-28T04:53:15.341Z,21.39
2018-11-28T04:54:15.333Z,21.39
2018-11-28T04:55:15.327Z,22.20
2018-11-28T04:56:15.311Z,21.79
2018-11-28T04:57:15.301Z,22.20
2018-11-28T04:58:15.289Z,22.70
2018-11-28T04:59:15.277Z,21.10
2018-11-28T05:00:15.269Z,21.89
2018-11-28T05:01:15.256Z,21.89
2018-11-28T05:02:15.248Z,23.20
2018-11-28T05:03:15.237Z,21.79
2018-11-28T05:04:15.225Z,21.00
2018-11-28T05:05:15.213Z,22.00
2018-11-28T05:06:15.204Z,22.00
2018-11-28T05:07:15.195Z,21.29
2018-11-28T05:08:15.240Z,21.29
2018-11-28T05:09:15.172Z,21.39
2018-11-28T05:10:15.159Z,22.20
2018-11-28T05:11:15.152Z,21.29
2018-11-28T05:12:15.153Z,20.89
2018-11-28T05:13:15.130Z,22.10
2018-11-28T05:14:15.120Z,20.70
2018-11-28T05:15:15.112Z,20.70
2018-11-28T05:16:15.096Z,20.29
2018-11-28T05:17:15.087Z,21.60
2018-11-28T05:18:15.078Z,21.10
2018-11-28T05:19:15.073Z,20.50
2018-11-28T05:20:15.055Z,21.89
2018-11-28T05:21:15.044Z,21.29
2018-11-28T05:22:15.035Z,21.60
2018-11-28T05:23:15.023Z,20.79
2018-11-28T05:24:15.011Z,20.89
2018-11-28T05:25:15.004Z,21.20
2018-11-28T05:26:14.991Z,20.39
2018-11-28T05:27:14.979Z,21.20
2018-11-28T05:28:14.969Z,20.60
2018-11-28T05:29:14.957Z,21.70
2018-11-28T05:30:14.948Z,21.50
2018-11-28T05:31:14.937Z,21.79
2018-11-28T05:32:14.936Z,21.10
2018-11-28T05:33:14.916Z,22.00
2018-11-28T05:34:14.905Z,21.00
2018-11-28T05:35:14.897Z,21.20
2018-11-28T05:36:14.884Z,21.70
2018-11-28T05:37:14.872Z,21.00
2018-11-28T05:38:14.864Z,22.29
2018-11-28T05:39:14.851Z,22.29
2018-11-28T05:40:14.841Z,21.29
2018-11-28T05:41:14.831Z,20.89
2018-11-28T05:42:14.821Z,21.50
2018-11-28T05:43:14.812Z,22.10
2018-11-28T05:44:14.799Z,21.79
2018-11-28T05:45:14.788Z,21.29
2018-11-28T05:46:14.783Z,20.89
2018-11-28T05:47:14.769Z,22.10
2018-11-28T05:48:15.220Z,21.00
2018-11-28T05:49:15.202Z,20.79
2018-11-28T05:50:14.742Z,21.20
2018-11-28T05:51:14.724Z,21.60
2018-11-28T05:52:14.715Z,21.39
2018-11-28T05:53:14.704Z,21.20
2018-11-28T05:54:14.692Z,20.70
2018-11-28T05:55:14.681Z,22.00
2018-11-28T05:56:14.671Z,23.10
2018-11-28T05:57:14.660Z,20.89
2018-11-28T05:58:14.649Z,21.50
2018-11-28T05:59:14.638Z,21.10
2018-11-28T06:00:14.628Z,21.10
2018-11-28T06:01:14.622Z,21.20
2018-11-28T06:02:14.608Z,22.20
2018-11-28T06:03:14.650Z,22.70
2018-11-28T06:04:14.586Z,21.60
2018-11-28T06:05:14.576Z,21.70
2018-11-28T06:06:14.565Z,22.39
2018-11-28T06:07:14.553Z,21.20
2018-11-28T06:08:14.544Z,22.20
2018-11-28T06:09:14.535Z,23.00
2018-11-28T06:10:14.521Z,22.70
2018-11-28T06:11:14.513Z,22.60
2018-11-28T06:12:14.502Z,22.00
2018-11-28T06:13:14.489Z,23.50
2018-11-28T06:14:14.478Z,22.70
2018-11-28T06:15:14.470Z,22.89
2018-11-28T06:16:14.459Z,23.00
2018-11-28T06:17:14.446Z,22.89
2018-11-28T06:18:14.438Z,23.00
2018-11-28T06:19:14.426Z,23.89
2018-11-28T06:20:14.414Z,22.20
2018-11-28T06:21:14.407Z,22.10
2018-11-28T06:22:14.402Z,21.29
2018-11-28T06:23:14.383Z,21.20
2018-11-28T06:24:14.371Z,22.89
2018-11-28T06:25:16.074Z,22.60
2018-11-28T06:26:14.352Z,22.00
2018-11-28T06:27:14.339Z,22.70
2018-11-28T06:28:14.329Z,22.60
2018-11-28T06:29:14.320Z,22.39
2018-11-28T06:30:14.311Z,22.70
2018-11-28T06:31:14.298Z,22.39
2018-11-28T06:32:14.287Z,23.10
2018-11-28T06:33:14.276Z,23.29
2018-11-28T06:34:14.270Z,23.50
2018-11-28T06:35:14.254Z,22.89
2018-11-28T06:36:14.249Z,23.70
2018-11-28T06:37:14.234Z,22.79
2018-11-28T06:38:14.223Z,23.00
2018-11-28T06:39:14.221Z,23.60
2018-11-28T06:40:14.203Z,23.29
2018-11-28T06:41:14.197Z,25.10
2018-11-28T06:42:14.182Z,25.39
2018-11-28T06:43:14.172Z,23.50
2018-11-28T06:44:14.160Z,25.00
2018-11-28T06:45:14.148Z,25.00
2018-11-28T06:46:14.139Z,26.60
2018-11-28T06:47:14.129Z,25.00
2018-11-28T06:48:14.119Z,26.10
2018-11-28T06:49:14.109Z,27.00
2018-11-28T06:50:14.096Z,26.00
2018-11-28T06:51:14.088Z,25.89
2018-11-28T06:52:14.075Z,26.10
2018-11-28T06:53:14.068Z,27.39
2018-11-28T06:54:14.054Z,27.00
2018-11-28T06:55:14.042Z,26.29
2018-11-28T06:56:14.030Z,25.89
2018-11-28T06:57:14.022Z,26.50
2018-11-28T06:58:14.010Z,25.79
2018-11-28T06:59:13.999Z,27.60
2018-11-28T07:00:13.992Z,27.70
2018-11-28T07:01:13.976Z,27.00
2018-11-28T07:02:13.967Z,27.50
2018-11-28T07:03:13.957Z,27.70
2018-11-28T07:04:13.948Z,27.89
2018-11-28T07:05:13.937Z,27.50
2018-11-28T07:06:13.923Z,26.20
2018-11-28T07:07:13.912Z,26.89
2018-11-28T07:08:13.904Z,26.60
2018-11-28T07:09:13.892Z,27.29
2018-11-28T07:10:13.880Z,27.20
2018-11-28T07:11:13.870Z,27.29
2018-11-28T07:12:13.861Z,26.60
2018-11-28T07:13:13.848Z,27.10
2018-11-28T07:14:13.839Z,27.70
2018-11-28T07:15:13.829Z,26.79
2018-11-28T07:16:13.816Z,27.10
2018-11-28T07:17:13.807Z,26.29
2018-11-28T07:18:13.795Z,27.00
2018-11-28T07:19:13.788Z,26.79
2018-11-28T07:20:13.775Z,26.79
2018-11-28T07:21:13.763Z,27.29
2018-11-28T07:22:13.753Z,26.00
2018-11-28T07:23:13.743Z,26.79
2018-11-28T07:24:13.732Z,27.00
2018-11-28T07:25:13.722Z,25.89
2018-11-28T07:26:13.709Z,27.10
2018-11-28T07:27:13.697Z,26.00
2018-11-28T07:28:13.689Z,26.60
2018-11-28T07:29:13.677Z,26.79
2018-11-28T07:30:13.668Z,26.50
2018-11-28T07:31:13.656Z,26.20
2018-11-28T07:32:13.645Z,26.79
2018-11-28T07:33:13.643Z,26.50
2018-11-28T07:34:13.625Z,26.79
2018-11-28T07:35:13.617Z,27.60
2018-11-28T07:36:13.614Z,27.10
2018-11-28T07:37:13.593Z,27.10
2018-11-28T07:38:13.583Z,27.20
2018-11-28T07:39:13.569Z,27.89
2018-11-28T07:40:13.559Z,27.20
2018-11-28T07:41:13.549Z,26.60
2018-11-28T07:42:13.562Z,27.00
2018-11-28T07:43:13.525Z,26.29
2018-11-28T07:44:13.517Z,27.70
2018-11-28T07:45:13.526Z,27.60
2018-11-28T07:46:13.496Z,26.20
2018-11-28T07:47:13.484Z,26.50
2018-11-28T07:48:13.478Z,26.50
2018-11-28T07:49:13.462Z,26.00
2018-11-28T07:50:13.454Z,26.50
2018-11-28T07:51:13.441Z,26.50
2018-11-28T07:52:13.433Z,26.20
2018-11-28T07:53:13.421Z,26.50
2018-11-28T07:54:13.411Z,26.00
2018-11-28T07:55:13.397Z,27.00
2018-11-28T07:56:13.387Z,26.79
2018-11-28T07:57:13.379Z,27.39
2018-11-28T07:58:13.367Z,25.89
2018-11-28T07:59:13.356Z,27.20
2018-11-28T08:00:13.389Z,26.50
2018-11-28T08:01:13.334Z,26.79
2018-11-28T08:02:13.323Z,27.50
2018-11-28T08:03:13.314Z,26.60
2018-11-28T08:04:13.303Z,26.00
2018-11-28T08:05:13.290Z,26.39
2018-11-28T08:06:13.282Z,27.39
2018-11-28T08:07:13.269Z,26.60
2018-11-28T08:08:13.259Z,27.00
2018-11-28T08:09:13.249Z,27.39
2018-11-28T08:10:13.237Z,26.50
2018-11-28T08:11:13.227Z,26.70
2018-11-28T08:12:13.217Z,26.79
2018-11-28T08:13:13.205Z,26.60
2018-11-28T08:14:13.195Z,26.50
2018-11-28T08:15:13.185Z,26.70
2018-11-28T08:16:13.173Z,26.29
2018-11-28T08:17:13.161Z,26.60
2018-11-28T08:18:13.151Z,26.20
2018-11-28T08:19:13.143Z,26.70
2018-11-28T08:20:13.129Z,27.20
2018-11-28T08:21:13.120Z,26.50
2018-11-28T08:22:13.109Z,26.89
2018-11-28T08:23:13.096Z,26.50
2018-11-28T08:24:13.087Z,26.79
2018-11-28T08:25:13.233Z,26.00
2018-11-28T08:26:13.066Z,26.39
2018-11-28T08:27:13.054Z,26.70
2018-11-28T08:28:13.043Z,26.50
2018-11-28T08:29:13.033Z,27.29
2018-11-28T08:30:13.021Z,26.50
2018-11-28T08:31:13.011Z,26.89
2018-11-28T08:32:13.004Z,26.79
2018-11-28T08:33:12.989Z,27.60
2018-11-28T08:34:12.980Z,27.00
2018-11-28T08:35:12.967Z,28.29
2018-11-28T08:36:12.957Z,28.29
2018-11-28T08:37:12.950Z,26.29
2018-11-28T08:38:12.935Z,26.89
2018-11-28T08:39:12.927Z,26.00
2018-11-28T08:40:12.917Z,25.89
2018-11-28T08:41:12.903Z,25.79
2018-11-28T08:42:12.893Z,28.00
2018-11-28T08:43:12.883Z,27.20
2018-11-28T08:44:12.872Z,26.29
2018-11-28T08:45:12.859Z,26.39
2018-11-28T08:46:12.919Z,26.39
2018-11-28T08:47:12.837Z,25.00
2018-11-28T08:48:12.973Z,25.39
2018-11-28T08:49:12.819Z,24.50
2018-11-28T08:50:12.806Z,26.39
2018-11-28T08:51:12.797Z,25.50
2018-11-28T08:52:12.785Z,26.39
2018-11-28T08:53:12.772Z,25.20
2018-11-28T08:54:12.781Z,25.70
2018-11-28T08:55:12.754Z,25.79
2018-11-28T08:56:12.746Z,26.89
2018-11-28T08:57:12.732Z,27.50
2018-11-28T08:58:12.719Z,26.10
2018-11-28T08:59:12.718Z,26.39
2018-11-28T09:00:12.698Z,25.60
2018-11-28T09:01:12.686Z,25.10
2018-11-28T09:02:12.677Z,27.00
2018-11-28T09:03:12.667Z,25.89
2018-11-28T09:04:12.657Z,25.20
2018-11-28T09:05:12.646Z,24.79
2018-11-28T09:06:12.638Z,26.20
2018-11-28T09:07:12.626Z,26.89
2018-11-28T09:08:12.614Z,25.29
2018-11-28T09:09:12.600Z,24.79
2018-11-28T09:10:12.592Z,25.00
2018-11-28T09:11:12.580Z,24.50
2018-11-28T09:12:12.580Z,25.89
2018-11-28T09:13:12.560Z,24.50
2018-11-28T09:14:12.549Z,25.60
2018-11-28T09:15:12.536Z,25.29
2018-11-28T09:16:12.527Z,24.29
2018-11-28T09:17:15.174Z,25.00
2018-11-28T09:18:12.536Z,24.89
2018-11-28T09:19:12.493Z,25.00
2018-11-28T09:20:12.485Z,23.89
2018-11-28T09:21:12.472Z,24.10
2018-11-28T09:22:12.462Z,24.20
2018-11-28T09:23:12.449Z,25.29
2018-11-28T09:24:12.438Z,25.20
2018-11-28T09:25:12.426Z,23.20
2018-11-28T09:26:12.415Z,22.89
2018-11-28T09:27:12.412Z,24.00
2018-11-28T09:28:12.397Z,23.70
2018-11-28T09:29:12.385Z,23.79
2018-11-28T09:30:12.373Z,23.00
2018-11-28T09:31:12.364Z,24.10
2018-11-28T09:32:12.351Z,22.79
2018-11-28T09:33:12.347Z,22.89
2018-11-28T09:34:12.330Z,23.00
2018-11-28T09:35:12.325Z,22.10
2018-11-28T09:36:12.311Z,22.70
2018-11-28T09:37:12.297Z,22.10
2018-11-28T09:38:12.286Z,21.70
2018-11-28T09:39:12.279Z,22.29
2018-11-28T09:40:12.266Z,21.79
2018-11-28T09:41:12.273Z,22.20
2018-11-28T09:42:12.243Z,22.79
2018-11-28T09:43:12.240Z,22.39
2018-11-28T09:44:12.223Z,22.60
2018-11-28T09:45:12.216Z,23.20
2018-11-28T09:46:12.202Z,23.79
2018-11-28T09:47:12.190Z,24.60
2018-11-28T09:48:12.180Z,25.29
2018-11-28T09:49:12.186Z,26.00
2018-11-28T09:50:12.157Z,23.39
2018-11-28T09:51:12.148Z,23.10
2018-11-28T09:52:12.135Z,23.39
2018-11-28T09:53:12.126Z,22.79
2018-11-28T09:54:12.113Z,22.00
2018-11-28T09:55:12.107Z,22.20
2018-11-28T09:56:12.226Z,22.89
2018-11-28T09:57:12.095Z,22.70
2018-11-28T09:58:12.071Z,22.50
2018-11-28T09:59:12.059Z,22.50
2018-11-28T10:00:12.048Z,22.20
2018-11-28T10:01:12.037Z,23.00
2018-11-28T10:02:12.031Z,22.20
2018-11-28T10:03:12.016Z,23.60
2018-11-28T10:04:12.007Z,23.00
2018-11-28T10:05:11.995Z,23.60
2018-11-28T10:06:11.986Z,22.00
2018-11-28T10:07:11.974Z,22.00
2018-11-28T10:08:11.961Z,23.50
2018-11-28T10:09:11.954Z,22.39
2018-11-28T10:10:11.942Z,23.00
2018-11-28T10:11:11.932Z,23.10
2018-11-28T10:12:11.919Z,22.79
2018-11-28T10:13:11.908Z,23.00
2018-11-28T10:14:11.963Z,23.60
2018-11-28T10:15:11.891Z,23.39
2018-11-28T10:16:11.877Z,22.39
2018-11-28T10:17:11.864Z,22.50
2018-11-28T10:18:11.856Z,23.50
2018-11-28T10:19:11.847Z,22.89
2018-11-28T10:20:11.836Z,23.70
2018-11-28T10:21:11.823Z,22.79
2018-11-28T10:22:11.810Z,23.20
2018-11-28T10:23:11.799Z,23.00
2018-11-28T10:24:11.790Z,24.10
2018-11-28T10:25:11.782Z,24.50
2018-11-28T10:26:11.769Z,23.50
2018-11-28T10:27:11.756Z,24.10
2018-11-28T10:28:11.748Z,23.70
2018-11-28T10:29:11.738Z,24.79
2018-11-28T10:30:11.725Z,24.50
2018-11-28T10:31:11.715Z,24.29
2018-11-28T10:32:11.704Z,24.20
2018-11-28T10:33:11.707Z,23.60
2018-11-28T10:34:11.682Z,23.60
2018-11-28T10:35:11.671Z,25.10
2018-11-28T10:36:11.661Z,24.39
2018-11-28T10:37:11.649Z,24.79
2018-11-28T10:38:11.641Z,25.00
2018-11-28T10:39:11.633Z,23.70
2018-11-28T10:40:11.621Z,24.39
2018-11-28T10:41:11.607Z,25.20
2018-11-28T10:42:11.599Z,23.39
2018-11-28T10:43:11.586Z,24.20
2018-11-28T10:44:11.579Z,23.89
2018-11-28T10:45:11.570Z,24.10
2018-11-28T10:46:11.551Z,25.60
2018-11-28T10:47:11.542Z,25.00
2018-11-28T10:48:11.532Z,25.39
2018-11-28T10:49:11.520Z,24.39
2018-11-28T10:50:11.510Z,24.10
2018-11-28T10:51:11.498Z,24.00
2018-11-28T10:52:11.495Z,23.39
2018-11-28T10:53:11.476Z,25.29
2018-11-28T10:54:11.469Z,24.89
2018-11-28T10:55:11.455Z,25.70
2018-11-28T10:56:11.445Z,24.29
2018-11-28T10:57:11.432Z,25.29
2018-11-28T10:58:11.424Z,24.70
2018-11-28T10:59:11.411Z,24.89
2018-11-28T11:00:11.402Z,24.79
2018-11-28T11:01:11.390Z,25.20
2018-11-28T11:02:11.378Z,24.60
2018-11-28T11:03:11.368Z,23.89
2018-11-28T11:04:11.365Z,25.00
2018-11-28T11:05:11.352Z,25.20
2018-11-28T11:06:11.335Z,25.60
2018-11-28T11:07:11.326Z,24.70
2018-11-28T11:08:11.315Z,23.70
2018-11-28T11:09:11.304Z,24.00
2018-11-28T11:10:11.292Z,24.10
2018-11-28T11:11:11.292Z,25.79
2018-11-28T11:12:11.271Z,24.50
2018-11-28T11:13:11.261Z,24.70
2018-11-28T11:14:11.249Z,24.60
2018-11-28T11:15:11.243Z,25.29
2018-11-28T11:16:11.226Z,26.60
2018-11-28T11:17:11.215Z,25.50
2018-11-28T11:18:11.306Z,25.79
2018-11-28T11:19:11.197Z,24.50
2018-11-28T11:20:11.183Z,24.39
2018-11-28T11:21:11.174Z,25.39
2018-11-28T11:22:11.163Z,23.39
2018-11-28T11:23:11.153Z,24.20
2018-11-28T11:24:11.194Z,23.89
2018-11-28T11:25:11.129Z,24.39
2018-11-28T11:26:11.119Z,25.20
2018-11-28T11:27:11.109Z,24.50
2018-11-28T11:28:11.099Z,25.60
2018-11-28T11:29:11.091Z,23.89
2018-11-28T11:30:11.074Z,24.39
2018-11-28T11:31:11.066Z,25.10
2018-11-28T11:32:11.061Z,24.50
2018-11-28T11:33:11.042Z,24.00
2018-11-28T11:34:11.034Z,25.70
2018-11-28T11:35:11.021Z,25.50
2018-11-28T11:36:11.011Z,25.00
2018-11-28T11:37:10.998Z,23.10
2018-11-28T11:38:11.031Z,23.39
2018-11-28T11:39:10.977Z,23.70
2018-11-28T11:40:10.965Z,23.39
2018-11-28T11:41:10.954Z,23.89
2018-11-28T11:42:10.946Z,22.79
2018-11-28T11:43:10.933Z,24.10
2018-11-28T11:44:10.922Z,23.60
2018-11-28T11:45:10.980Z,24.70
2018-11-28T11:46:10.903Z,23.29
2018-11-28T11:47:10.889Z,24.79
2018-11-28T11:48:10.883Z,23.60
2018-11-28T11:49:10.870Z,24.60
2018-11-28T11:50:10.859Z,24.89
2018-11-28T11:51:10.846Z,24.70
2018-11-28T11:52:10.835Z,26.00
2018-11-28T11:53:10.827Z,25.00
2018-11-28T11:54:10.816Z,23.20
2018-11-28T11:55:11.191Z,23.20
2018-11-28T11:56:10.794Z,24.70
2018-11-28T11:57:10.782Z,23.70
2018-11-28T11:58:10.773Z,24.00
2018-11-28T11:59:10.763Z,23.50
2018-11-28T12:00:10.750Z,23.39
2018-11-28T12:01:10.740Z,23.39
2018-11-28T12:02:10.728Z,22.50
2018-11-28T12:03:10.717Z,23.10
2018-11-28T12:04:10.708Z,22.89
2018-11-28T12:05:10.698Z,23.00
2018-11-28T12:06:10.686Z,23.60
2018-11-28T12:07:10.676Z,22.39
2018-11-28T12:08:10.665Z,24.00
2018-11-28T12:09:10.651Z,23.20
2018-11-28T12:10:10.641Z,22.20
2018-11-28T12:11:10.635Z,22.29
2018-11-28T12:12:10.623Z,22.60
2018-11-28T12:13:10.613Z,21.70
2018-11-28T12:14:10.598Z,21.39
2018-11-28T12:15:10.592Z,23.10
2018-11-28T12:16:10.579Z,22.50
2018-11-28T12:17:10.567Z,22.20
2018-11-28T12:18:10.555Z,22.10
2018-11-28T12:19:10.547Z,23.10
2018-11-28T12:20:10.533Z,21.89
2018-11-28T12:21:10.523Z,21.50
2018-11-28T12:22:10.512Z,22.10
2018-11-28T12:23:10.502Z,21.60
2018-11-28T12:24:10.489Z,22.29
2018-11-28T12:25:10.479Z,21.20
2018-11-28T12:26:10.467Z,21.60
2018-11-28T12:27:10.458Z,22.50
2018-11-28T12:28:10.445Z,22.10
2018-11-28T12:29:10.435Z,22.60
2018-11-28T12:30:10.433Z,20.50
2018-11-28T12:31:10.414Z,22.20
2018-11-28T12:32:10.402Z,22.29
2018-11-28T12:33:10.393Z,21.60
2018-11-28T12:34:10.382Z,20.70
2018-11-28T12:35:10.371Z,21.50
2018-11-28T12:36:10.359Z,20.79
2018-11-28T12:37:10.349Z,22.10
2018-11-28T12:38:10.339Z,22.20
2018-11-28T12:39:10.327Z,22.10
2018-11-28T12:40:10.317Z,21.39
2018-11-28T12:41:10.340Z,22.00
2018-11-28T12:42:10.296Z,21.70
2018-11-28T12:43:10.284Z,21.39
2018-11-28T12:44:10.271Z,21.60
2018-11-28T12:45:10.262Z,22.20
2018-11-28T12:46:10.249Z,22.50
2018-11-28T12:47:10.239Z,21.89
2018-11-28T12:48:10.229Z,21.20
2018-11-28T12:49:10.218Z,21.00
2018-11-28T12:50:10.224Z,20.79
2018-11-28T12:51:10.196Z,21.50
2018-11-28T12:52:10.187Z,20.39